sensor_id;sensor_type;location;lat;lon;timestamp;P1;durP1;ratioP1;P2;durP2;ratioP2
52934;SDS011;38802;50.198;19.796;2023-06-26T00:00:10;7.30;;;3.40;;
52934;SDS011;38802;50.198;19.796;2023-06-26T00:02:59;4.20;;;3.60;;
52934;SDS011;38802;50.198;19.796;2023-06-26T00:05:28;3.60;;;3.30;;
52934;SDS011;38802;50.198;19.796;2023-06-26T00:07:58;4.20;;;3.50;;
52934;SDS011;38802;50.198;19.796;2023-06-26T00:10:28;4.20;;;3.80;;
52934;SDS011;38802;50.198;19.796;2023-06-26T00:12:56;4.50;;;4.00;;
52934;SDS011;38802;50.198;19.796;2023-06-26T00:15:24;4.30;;;4.00;;
52934;SDS011;38802;50.198;19.796;2023-06-26T00:17:54;3.80;;;3.50;;
52934;SDS011;38802;50.198;19.796;2023-06-26T00:20:35;5.80;;;4.00;;
52934;SDS011;38802;50.198;19.796;2023-06-26T00:23:13;4.60;;;3.70;;
52934;SDS011;38802;50.198;19.796;2023-06-26T00:25:44;5.90;;;3.50;;
52934;SDS011;38802;50.198;19.796;2023-06-26T00:28:12;5.90;;;4.00;;
52934;SDS011;38802;50.198;19.796;2023-06-26T00:30:40;5.80;;;3.60;;
52934;SDS011;38802;50.198;19.796;2023-06-26T00:33:08;3.60;;;3.30;;
52934;SDS011;38802;50.198;19.796;2023-06-26T00:35:36;4.40;;;3.50;;
52934;SDS011;38802;50.198;19.796;2023-06-26T00:38:06;4.00;;;3.30;;
52934;SDS011;38802;50.198;19.796;2023-06-26T00:40:34;5.50;;;3.10;;
52934;SDS011;38802;50.198;19.796;2023-06-26T00:43:02;3.90;;;3.20;;
52934;SDS011;38802;50.198;19.796;2023-06-26T00:45:30;3.30;;;3.00;;
52934;SDS011;38802;50.198;19.796;2023-06-26T00:48:10;3.80;;;3.50;;
52934;SDS011;38802;50.198;19.796;2023-06-26T00:50:42;3.90;;;3.60;;
52934;SDS011;38802;50.198;19.796;2023-06-26T00:53:11;4.90;;;3.80;;
52934;SDS011;38802;50.198;19.796;2023-06-26T00:55:39;3.80;;;3.40;;
52934;SDS011;38802;50.198;19.796;2023-06-26T00:58:09;4.00;;;3.60;;
52934;SDS011;38802;50.198;19.796;2023-06-26T01:00:37;5.10;;;3.60;;
52934;SDS011;38802;50.198;19.796;2023-06-26T01:03:07;5.80;;;4.20;;
52934;SDS011;38802;50.198;19.796;2023-06-26T01:05:35;4.50;;;4.10;;
52934;SDS011;38802;50.198;19.796;2023-06-26T01:08:03;6.20;;;4.00;;
52934;SDS011;38802;50.198;19.796;2023-06-26T01:10:31;4.30;;;3.90;;
52934;SDS011;38802;50.198;19.796;2023-06-26T01:13:00;5.10;;;3.90;;
52934;SDS011;38802;50.198;19.796;2023-06-26T01:15:33;5.70;;;4.90;;
52934;SDS011;38802;50.198;19.796;2023-06-26T01:18:01;5.30;;;3.80;;
52934;SDS011;38802;50.198;19.796;2023-06-26T01:20:35;4.40;;;3.90;;
52934;SDS011;38802;50.198;19.796;2023-06-26T01:28:42;6.40;;;4.10;;
52934;SDS011;38802;50.198;19.796;2023-06-26T01:31:11;3.90;;;3.60;;
52934;SDS011;38802;50.198;19.796;2023-06-26T01:33:41;5.60;;;4.40;;
52934;SDS011;38802;50.198;19.796;2023-06-26T01:36:10;6.60;;;3.50;;
52934;SDS011;38802;50.198;19.796;2023-06-26T01:38:38;4.50;;;4.10;;
52934;SDS011;38802;50.198;19.796;2023-06-26T01:41:06;4.30;;;3.00;;
52934;SDS011;38802;50.198;19.796;2023-06-26T01:46:13;4.40;;;3.60;;
52934;SDS011;38802;50.198;19.796;2023-06-26T01:48:50;4.00;;;3.10;;
52934;SDS011;38802;50.198;19.796;2023-06-26T01:51:32;4.00;;;3.60;;
52934;SDS011;38802;50.198;19.796;2023-06-26T01:54:05;3.70;;;3.40;;
52934;SDS011;38802;50.198;19.796;2023-06-26T01:56:38;5.10;;;4.30;;
52934;SDS011;38802;50.198;19.796;2023-06-26T01:59:08;6.10;;;4.40;;
52934;SDS011;38802;50.198;19.796;2023-06-26T02:01:37;4.00;;;3.60;;
52934;SDS011;38802;50.198;19.796;2023-06-26T02:04:06;4.50;;;4.10;;
52934;SDS011;38802;50.198;19.796;2023-06-26T02:06:34;4.80;;;4.10;;
52934;SDS011;38802;50.198;19.796;2023-06-26T02:09:02;4.80;;;4.40;;
52934;SDS011;38802;50.198;19.796;2023-06-26T02:11:31;5.00;;;4.50;;
52934;SDS011;38802;50.198;19.796;2023-06-26T02:14:00;5.80;;;4.70;;
52934;SDS011;38802;50.198;19.796;2023-06-26T02:16:28;5.40;;;4.40;;
52934;SDS011;38802;50.198;19.796;2023-06-26T02:18:57;4.50;;;3.90;;
52934;SDS011;38802;50.198;19.796;2023-06-26T02:21:25;4.60;;;4.10;;
52934;SDS011;38802;50.198;19.796;2023-06-26T02:23:56;4.80;;;4.30;;
52934;SDS011;38802;50.198;19.796;2023-06-26T02:26:25;5.80;;;4.40;;
52934;SDS011;38802;50.198;19.796;2023-06-26T02:28:53;5.90;;;3.60;;
52934;SDS011;38802;50.198;19.796;2023-06-26T02:31:21;4.70;;;3.90;;
52934;SDS011;38802;50.198;19.796;2023-06-26T02:33:49;3.80;;;3.30;;
52934;SDS011;38802;50.198;19.796;2023-06-26T02:36:17;5.20;;;4.40;;
52934;SDS011;38802;50.198;19.796;2023-06-26T02:38:45;4.60;;;4.00;;
52934;SDS011;38802;50.198;19.796;2023-06-26T02:41:13;5.00;;;4.50;;
52934;SDS011;38802;50.198;19.796;2023-06-26T02:43:41;4.30;;;3.90;;
52934;SDS011;38802;50.198;19.796;2023-06-26T02:46:09;6.10;;;4.00;;
52934;SDS011;38802;50.198;19.796;2023-06-26T02:48:37;4.40;;;3.90;;
52934;SDS011;38802;50.198;19.796;2023-06-26T02:51:05;5.20;;;4.10;;
52934;SDS011;38802;50.198;19.796;2023-06-26T02:53:35;5.50;;;4.40;;
52934;SDS011;38802;50.198;19.796;2023-06-26T02:56:04;4.40;;;3.90;;
52934;SDS011;38802;50.198;19.796;2023-06-26T02:58:33;5.70;;;3.80;;
52934;SDS011;38802;50.198;19.796;2023-06-26T03:01:01;4.40;;;4.00;;
52934;SDS011;38802;50.198;19.796;2023-06-26T03:03:29;5.10;;;4.60;;
52934;SDS011;38802;50.198;19.796;2023-06-26T03:05:57;5.20;;;4.30;;
52934;SDS011;38802;50.198;19.796;2023-06-26T03:08:26;4.40;;;3.50;;
52934;SDS011;38802;50.198;19.796;2023-06-26T03:10:54;5.90;;;4.20;;
52934;SDS011;38802;50.198;19.796;2023-06-26T03:13:22;7.50;;;3.70;;
52934;SDS011;38802;50.198;19.796;2023-06-26T03:15:50;4.50;;;3.90;;
52934;SDS011;38802;50.198;19.796;2023-06-26T03:18:18;4.80;;;4.30;;
52934;SDS011;38802;50.198;19.796;2023-06-26T03:20:46;5.60;;;4.00;;
52934;SDS011;38802;50.198;19.796;2023-06-26T03:23:15;4.80;;;3.90;;
52934;SDS011;38802;50.198;19.796;2023-06-26T03:25:44;5.70;;;4.00;;
52934;SDS011;38802;50.198;19.796;2023-06-26T03:28:23;4.10;;;3.70;;
52934;SDS011;38802;50.198;19.796;2023-06-26T03:30:51;5.70;;;4.20;;
52934;SDS011;38802;50.198;19.796;2023-06-26T03:33:19;4.80;;;3.60;;
52934;SDS011;38802;50.198;19.796;2023-06-26T03:35:47;7.70;;;4.70;;
52934;SDS011;38802;50.198;19.796;2023-06-26T03:38:15;6.30;;;4.90;;
52934;SDS011;38802;50.198;19.796;2023-06-26T03:40:44;5.60;;;4.40;;
52934;SDS011;38802;50.198;19.796;2023-06-26T03:43:12;6.10;;;4.80;;
52934;SDS011;38802;50.198;19.796;2023-06-26T03:45:46;4.80;;;4.40;;
52934;SDS011;38802;50.198;19.796;2023-06-26T03:48:14;5.90;;;4.30;;
52934;SDS011;38802;50.198;19.796;2023-06-26T03:50:42;5.90;;;4.20;;
52934;SDS011;38802;50.198;19.796;2023-06-26T03:53:10;5.80;;;4.50;;
52934;SDS011;38802;50.198;19.796;2023-06-26T03:55:40;8.20;;;4.30;;
52934;SDS011;38802;50.198;19.796;2023-06-26T03:58:08;8.40;;;4.30;;
52934;SDS011;38802;50.198;19.796;2023-06-26T04:00:37;7.90;;;4.70;;
52934;SDS011;38802;50.198;19.796;2023-06-26T04:03:05;5.00;;;4.30;;
52934;SDS011;38802;50.198;19.796;2023-06-26T04:05:34;5.80;;;4.00;;
52934;SDS011;38802;50.198;19.796;2023-06-26T04:08:02;7.20;;;4.90;;
52934;SDS011;38802;50.198;19.796;2023-06-26T04:10:30;5.70;;;4.80;;
52934;SDS011;38802;50.198;19.796;2023-06-26T04:12:58;7.00;;;4.90;;
52934;SDS011;38802;50.198;19.796;2023-06-26T04:15:27;7.50;;;5.30;;
52934;SDS011;38802;50.198;19.796;2023-06-26T04:17:55;6.80;;;5.20;;
52934;SDS011;38802;50.198;19.796;2023-06-26T04:20:23;10.40;;;5.50;;
52934;SDS011;38802;50.198;19.796;2023-06-26T04:22:51;6.00;;;5.30;;
52934;SDS011;38802;50.198;19.796;2023-06-26T04:25:19;9.20;;;5.50;;
52934;SDS011;38802;50.198;19.796;2023-06-26T04:27:48;6.80;;;5.10;;
52934;SDS011;38802;50.198;19.796;2023-06-26T04:30:16;4.90;;;4.20;;
52934;SDS011;38802;50.198;19.796;2023-06-26T04:32:44;6.90;;;4.60;;
52934;SDS011;38802;50.198;19.796;2023-06-26T04:35:12;9.20;;;4.50;;
52934;SDS011;38802;50.198;19.796;2023-06-26T04:37:40;7.20;;;5.00;;
52934;SDS011;38802;50.198;19.796;2023-06-26T04:40:08;6.40;;;5.20;;
52934;SDS011;38802;50.198;19.796;2023-06-26T04:42:39;8.10;;;4.00;;
52934;SDS011;38802;50.198;19.796;2023-06-26T04:45:07;4.50;;;4.10;;
52934;SDS011;38802;50.198;19.796;2023-06-26T04:47:35;5.90;;;4.40;;
52934;SDS011;38802;50.198;19.796;2023-06-26T04:50:03;6.40;;;4.00;;
52934;SDS011;38802;50.198;19.796;2023-06-26T04:52:32;5.50;;;3.90;;
52934;SDS011;38802;50.198;19.796;2023-06-26T04:55:00;5.30;;;3.70;;
52934;SDS011;38802;50.198;19.796;2023-06-26T04:57:28;5.60;;;3.70;;
52934;SDS011;38802;50.198;19.796;2023-06-26T04:59:56;4.10;;;3.70;;
52934;SDS011;38802;50.198;19.796;2023-06-26T05:02:24;6.60;;;3.50;;
52934;SDS011;38802;50.198;19.796;2023-06-26T05:04:54;5.90;;;4.10;;
52934;SDS011;38802;50.198;19.796;2023-06-26T05:07:22;5.80;;;4.20;;
52934;SDS011;38802;50.198;19.796;2023-06-26T05:09:50;5.30;;;3.50;;
52934;SDS011;38802;50.198;19.796;2023-06-26T05:12:18;5.30;;;3.60;;
52934;SDS011;38802;50.198;19.796;2023-06-26T05:14:46;5.10;;;4.20;;
52934;SDS011;38802;50.198;19.796;2023-06-26T05:17:14;5.50;;;4.90;;
52934;SDS011;38802;50.198;19.796;2023-06-26T05:19:42;6.20;;;3.90;;
52934;SDS011;38802;50.198;19.796;2023-06-26T05:22:11;7.30;;;4.20;;
52934;SDS011;38802;50.198;19.796;2023-06-26T05:24:41;5.90;;;4.90;;
52934;SDS011;38802;50.198;19.796;2023-06-26T05:27:10;5.50;;;4.10;;
52934;SDS011;38802;50.198;19.796;2023-06-26T05:29:47;4.00;;;3.70;;
52934;SDS011;38802;50.198;19.796;2023-06-26T05:32:16;5.80;;;4.30;;
52934;SDS011;38802;50.198;19.796;2023-06-26T05:34:48;4.50;;;4.10;;
52934;SDS011;38802;50.198;19.796;2023-06-26T05:37:19;6.40;;;4.10;;
52934;SDS011;38802;50.198;19.796;2023-06-26T05:39:50;4.20;;;3.80;;
52934;SDS011;38802;50.198;19.796;2023-06-26T05:42:20;4.20;;;3.80;;
52934;SDS011;38802;50.198;19.796;2023-06-26T05:44:49;3.80;;;3.50;;
52934;SDS011;38802;50.198;19.796;2023-06-26T05:47:17;4.20;;;3.80;;
52934;SDS011;38802;50.198;19.796;2023-06-26T05:49:45;3.60;;;3.30;;
52934;SDS011;38802;50.198;19.796;2023-06-26T05:52:13;4.00;;;3.60;;
52934;SDS011;38802;50.198;19.796;2023-06-26T05:54:41;4.40;;;3.70;;
52934;SDS011;38802;50.198;19.796;2023-06-26T05:57:10;6.90;;;4.20;;
52934;SDS011;38802;50.198;19.796;2023-06-26T05:59:40;4.20;;;3.80;;
52934;SDS011;38802;50.198;19.796;2023-06-26T06:02:09;3.80;;;3.50;;
52934;SDS011;38802;50.198;19.796;2023-06-26T06:04:38;4.00;;;3.60;;
52934;SDS011;38802;50.198;19.796;2023-06-26T06:07:06;3.50;;;3.20;;
52934;SDS011;38802;50.198;19.796;2023-06-26T06:09:35;6.60;;;3.60;;
52934;SDS011;38802;50.198;19.796;2023-06-26T06:12:04;3.80;;;3.50;;
52934;SDS011;38802;50.198;19.796;2023-06-26T06:14:33;3.90;;;3.50;;
52934;SDS011;38802;50.198;19.796;2023-06-26T06:17:02;3.90;;;3.50;;
52934;SDS011;38802;50.198;19.796;2023-06-26T06:19:31;5.90;;;3.80;;
52934;SDS011;38802;50.198;19.796;2023-06-26T06:21:59;4.50;;;3.80;;
52934;SDS011;38802;50.198;19.796;2023-06-26T06:24:27;4.40;;;3.80;;
52934;SDS011;38802;50.198;19.796;2023-06-26T06:26:55;3.50;;;3.20;;
52934;SDS011;38802;50.198;19.796;2023-06-26T06:29:23;4.30;;;3.40;;
52934;SDS011;38802;50.198;19.796;2023-06-26T06:31:51;6.50;;;4.00;;
52934;SDS011;38802;50.198;19.796;2023-06-26T06:34:19;7.40;;;3.80;;
52934;SDS011;38802;50.198;19.796;2023-06-26T06:36:47;8.20;;;3.50;;
52934;SDS011;38802;50.198;19.796;2023-06-26T06:39:16;4.20;;;3.80;;
52934;SDS011;38802;50.198;19.796;2023-06-26T06:41:44;4.80;;;3.50;;
52934;SDS011;38802;50.198;19.796;2023-06-26T06:44:12;4.70;;;3.50;;
52934;SDS011;38802;50.198;19.796;2023-06-26T06:46:40;3.30;;;2.80;;
52934;SDS011;38802;50.198;19.796;2023-06-26T06:49:16;4.40;;;3.70;;
52934;SDS011;38802;50.198;19.796;2023-06-26T06:51:44;7.30;;;3.10;;
52934;SDS011;38802;50.198;19.796;2023-06-26T06:54:15;3.90;;;3.60;;
52934;SDS011;38802;50.198;19.796;2023-06-26T06:56:44;3.40;;;3.10;;
52934;SDS011;38802;50.198;19.796;2023-06-26T06:59:12;3.20;;;2.80;;
52934;SDS011;38802;50.198;19.796;2023-06-26T07:01:40;3.20;;;2.90;;
52934;SDS011;38802;50.198;19.796;2023-06-26T07:04:08;2.80;;;2.60;;
52934;SDS011;38802;50.198;19.796;2023-06-26T07:06:38;3.30;;;2.90;;
52934;SDS011;38802;50.198;19.796;2023-06-26T07:09:29;4.00;;;3.60;;
52934;SDS011;38802;50.198;19.796;2023-06-26T07:11:57;3.90;;;3.30;;
52934;SDS011;38802;50.198;19.796;2023-06-26T07:14:26;4.10;;;3.70;;
52934;SDS011;38802;50.198;19.796;2023-06-26T07:16:56;6.80;;;3.30;;
52934;SDS011;38802;50.198;19.796;2023-06-26T07:19:24;3.90;;;3.10;;
52934;SDS011;38802;50.198;19.796;2023-06-26T07:21:52;6.50;;;3.20;;
52934;SDS011;38802;50.198;19.796;2023-06-26T07:24:20;3.30;;;2.90;;
52934;SDS011;38802;50.198;19.796;2023-06-26T07:26:49;3.20;;;2.90;;
52934;SDS011;38802;50.198;19.796;2023-06-26T07:29:17;3.60;;;3.30;;
52934;SDS011;38802;50.198;19.796;2023-06-26T07:31:45;7.50;;;2.90;;
52934;SDS011;38802;50.198;19.796;2023-06-26T07:34:14;4.30;;;3.30;;
52934;SDS011;38802;50.198;19.796;2023-06-26T07:36:41;4.90;;;2.90;;
52934;SDS011;38802;50.198;19.796;2023-06-26T07:39:10;3.10;;;2.70;;
52934;SDS011;38802;50.198;19.796;2023-06-26T07:41:44;4.90;;;3.00;;
52934;SDS011;38802;50.198;19.796;2023-06-26T07:44:12;4.00;;;2.70;;
52934;SDS011;38802;50.198;19.796;2023-06-26T07:46:40;2.70;;;2.50;;
52934;SDS011;38802;50.198;19.796;2023-06-26T07:49:08;4.60;;;2.70;;
52934;SDS011;38802;50.198;19.796;2023-06-26T07:51:37;5.40;;;2.90;;
52934;SDS011;38802;50.198;19.796;2023-06-26T07:54:05;3.50;;;2.80;;
52934;SDS011;38802;50.198;19.796;2023-06-26T07:59:31;3.30;;;3.00;;
52934;SDS011;38802;50.198;19.796;2023-06-26T08:01:59;4.90;;;3.40;;
52934;SDS011;38802;50.198;19.796;2023-06-26T08:04:27;3.30;;;2.80;;
52934;SDS011;38802;50.198;19.796;2023-06-26T08:06:58;4.10;;;2.90;;
52934;SDS011;38802;50.198;19.796;2023-06-26T08:09:28;3.10;;;2.90;;
52934;SDS011;38802;50.198;19.796;2023-06-26T08:11:57;6.20;;;2.70;;
52934;SDS011;38802;50.198;19.796;2023-06-26T08:14:26;3.60;;;2.90;;
52934;SDS011;38802;50.198;19.796;2023-06-26T08:16:54;3.70;;;2.70;;
52934;SDS011;38802;50.198;19.796;2023-06-26T08:19:23;4.50;;;3.40;;
52934;SDS011;38802;50.198;19.796;2023-06-26T08:21:51;3.40;;;3.10;;
52934;SDS011;38802;50.198;19.796;2023-06-26T08:24:20;4.00;;;3.10;;
52934;SDS011;38802;50.198;19.796;2023-06-26T08:26:48;4.80;;;3.10;;
52934;SDS011;38802;50.198;19.796;2023-06-26T08:29:16;3.70;;;3.30;;
52934;SDS011;38802;50.198;19.796;2023-06-26T08:31:44;3.20;;;2.90;;
52934;SDS011;38802;50.198;19.796;2023-06-26T08:34:12;3.20;;;2.90;;
52934;SDS011;38802;50.198;19.796;2023-06-26T08:36:40;4.10;;;3.10;;
52934;SDS011;38802;50.198;19.796;2023-06-26T08:39:08;3.40;;;2.70;;
52934;SDS011;38802;50.198;19.796;2023-06-26T08:41:36;3.30;;;2.80;;
52934;SDS011;38802;50.198;19.796;2023-06-26T08:44:04;3.90;;;2.80;;
52934;SDS011;38802;50.198;19.796;2023-06-26T08:46:33;4.90;;;2.70;;
52934;SDS011;38802;50.198;19.796;2023-06-26T08:49:04;3.50;;;2.90;;
52934;SDS011;38802;50.198;19.796;2023-06-26T08:51:42;4.10;;;2.90;;
52934;SDS011;38802;50.198;19.796;2023-06-26T08:54:18;3.30;;;2.90;;
52934;SDS011;38802;50.198;19.796;2023-06-26T08:56:51;3.20;;;2.90;;
52934;SDS011;38802;50.198;19.796;2023-06-26T08:59:19;3.80;;;3.00;;
52934;SDS011;38802;50.198;19.796;2023-06-26T09:01:49;3.70;;;2.80;;
52934;SDS011;38802;50.198;19.796;2023-06-26T09:04:17;2.90;;;2.70;;
52934;SDS011;38802;50.198;19.796;2023-06-26T09:06:45;4.80;;;2.90;;
52934;SDS011;38802;50.198;19.796;2023-06-26T09:09:14;3.10;;;2.80;;
52934;SDS011;38802;50.198;19.796;2023-06-26T09:12:03;6.50;;;3.00;;
52934;SDS011;38802;50.198;19.796;2023-06-26T09:14:31;3.50;;;3.10;;
52934;SDS011;38802;50.198;19.796;2023-06-26T09:16:59;2.80;;;2.40;;
52934;SDS011;38802;50.198;19.796;2023-06-26T09:19:28;3.00;;;2.50;;
52934;SDS011;38802;50.198;19.796;2023-06-26T09:21:57;4.80;;;2.80;;
52934;SDS011;38802;50.198;19.796;2023-06-26T09:24:44;6.90;;;3.10;;
52934;SDS011;38802;50.198;19.796;2023-06-26T09:27:13;3.30;;;2.90;;
52934;SDS011;38802;50.198;19.796;2023-06-26T09:29:45;2.80;;;2.50;;
52934;SDS011;38802;50.198;19.796;2023-06-26T09:32:14;3.70;;;2.50;;
52934;SDS011;38802;50.198;19.796;2023-06-26T09:34:43;2.80;;;2.50;;
52934;SDS011;38802;50.198;19.796;2023-06-26T09:37:14;3.10;;;2.80;;
52934;SDS011;38802;50.198;19.796;2023-06-26T09:39:42;3.50;;;3.20;;
52934;SDS011;38802;50.198;19.796;2023-06-26T09:42:13;3.40;;;2.50;;
52934;SDS011;38802;50.198;19.796;2023-06-26T09:44:44;4.90;;;3.00;;
52934;SDS011;38802;50.198;19.796;2023-06-26T09:47:16;3.10;;;2.80;;
52934;SDS011;38802;50.198;19.796;2023-06-26T09:49:46;5.00;;;2.80;;
52934;SDS011;38802;50.198;19.796;2023-06-26T09:52:15;2.80;;;2.50;;
52934;SDS011;38802;50.198;19.796;2023-06-26T09:54:44;3.30;;;2.90;;
52934;SDS011;38802;50.198;19.796;2023-06-26T09:57:17;3.20;;;2.60;;
52934;SDS011;38802;50.198;19.796;2023-06-26T09:59:46;3.40;;;3.10;;
52934;SDS011;38802;50.198;19.796;2023-06-26T10:02:15;3.70;;;3.20;;
52934;SDS011;38802;50.198;19.796;2023-06-26T10:04:43;3.50;;;3.10;;
52934;SDS011;38802;50.198;19.796;2023-06-26T10:07:12;4.20;;;3.10;;
52934;SDS011;38802;50.198;19.796;2023-06-26T10:09:41;3.60;;;3.30;;
52934;SDS011;38802;50.198;19.796;2023-06-26T10:12:11;3.90;;;3.60;;
52934;SDS011;38802;50.198;19.796;2023-06-26T10:14:45;5.30;;;3.00;;
52934;SDS011;38802;50.198;19.796;2023-06-26T10:17:19;3.80;;;3.40;;
52934;SDS011;38802;50.198;19.796;2023-06-26T10:19:49;4.30;;;3.90;;
52934;SDS011;38802;50.198;19.796;2023-06-26T10:22:20;7.10;;;3.40;;
52934;SDS011;38802;50.198;19.796;2023-06-26T10:24:52;4.70;;;3.50;;
52934;SDS011;38802;50.198;19.796;2023-06-26T10:27:28;5.10;;;3.50;;
52934;SDS011;38802;50.198;19.796;2023-06-26T10:30:03;6.10;;;3.40;;
52934;SDS011;38802;50.198;19.796;2023-06-26T10:32:36;5.90;;;3.20;;
52934;SDS011;38802;50.198;19.796;2023-06-26T10:35:06;3.70;;;3.30;;
52934;SDS011;38802;50.198;19.796;2023-06-26T10:40:13;4.30;;;3.20;;
52934;SDS011;38802;50.198;19.796;2023-06-26T10:42:42;4.00;;;3.60;;
52934;SDS011;38802;50.198;19.796;2023-06-26T10:45:18;4.30;;;3.40;;
52934;SDS011;38802;50.198;19.796;2023-06-26T10:47:48;5.60;;;3.40;;
52934;SDS011;38802;50.198;19.796;2023-06-26T10:50:24;4.10;;;3.30;;
52934;SDS011;38802;50.198;19.796;2023-06-26T11:03:56;5.60;;;3.90;;
52934;SDS011;38802;50.198;19.796;2023-06-26T11:06:33;5.50;;;4.60;;
52934;SDS011;38802;50.198;19.796;2023-06-26T11:09:15;5.20;;;4.70;;
52934;SDS011;38802;50.198;19.796;2023-06-26T11:14:27;8.90;;;4.00;;
52934;SDS011;38802;50.198;19.796;2023-06-26T11:16:56;3.70;;;3.40;;
52934;SDS011;38802;50.198;19.796;2023-06-26T11:19:27;6.40;;;4.20;;
52934;SDS011;38802;50.198;19.796;2023-06-26T11:21:59;7.60;;;3.90;;
52934;SDS011;38802;50.198;19.796;2023-06-26T11:24:29;5.20;;;4.50;;
52934;SDS011;38802;50.198;19.796;2023-06-26T11:26:59;4.50;;;4.10;;
52934;SDS011;38802;50.198;19.796;2023-06-26T11:29:29;4.60;;;4.20;;
52934;SDS011;38802;50.198;19.796;2023-06-26T11:31:58;5.00;;;4.60;;
52934;SDS011;38802;50.198;19.796;2023-06-26T11:34:32;4.60;;;4.20;;
52934;SDS011;38802;50.198;19.796;2023-06-26T11:37:01;7.50;;;4.10;;
52934;SDS011;38802;50.198;19.796;2023-06-26T11:39:30;5.10;;;3.70;;
52934;SDS011;38802;50.198;19.796;2023-06-26T11:41:58;8.70;;;4.60;;
52934;SDS011;38802;50.198;19.796;2023-06-26T11:44:30;4.70;;;4.30;;
52934;SDS011;38802;50.198;19.796;2023-06-26T11:46:59;4.20;;;3.90;;
52934;SDS011;38802;50.198;19.796;2023-06-26T11:49:28;7.00;;;4.20;;
52934;SDS011;38802;50.198;19.796;2023-06-26T11:51:57;6.10;;;4.50;;
52934;SDS011;38802;50.198;19.796;2023-06-26T11:54:25;4.90;;;4.10;;
52934;SDS011;38802;50.198;19.796;2023-06-26T11:56:55;5.40;;;4.70;;
52934;SDS011;38802;50.198;19.796;2023-06-26T11:59:33;6.50;;;4.60;;
52934;SDS011;38802;50.198;19.796;2023-06-26T12:02:05;5.40;;;4.90;;
52934;SDS011;38802;50.198;19.796;2023-06-26T12:04:35;6.30;;;4.70;;
52934;SDS011;38802;50.198;19.796;2023-06-26T12:07:09;4.60;;;4.20;;
52934;SDS011;38802;50.198;19.796;2023-06-26T12:09:42;5.90;;;4.30;;
52934;SDS011;38802;50.198;19.796;2023-06-26T12:12:13;6.30;;;4.90;;
52934;SDS011;38802;50.198;19.796;2023-06-26T12:14:44;5.50;;;5.00;;
52934;SDS011;38802;50.198;19.796;2023-06-26T12:17:13;5.20;;;4.80;;
52934;SDS011;38802;50.198;19.796;2023-06-26T12:19:45;5.30;;;4.80;;
52934;SDS011;38802;50.198;19.796;2023-06-26T12:22:18;5.00;;;4.60;;
52934;SDS011;38802;50.198;19.796;2023-06-26T12:24:47;5.70;;;4.10;;
52934;SDS011;38802;50.198;19.796;2023-06-26T12:27:17;4.60;;;4.20;;
52934;SDS011;38802;50.198;19.796;2023-06-26T12:29:53;4.90;;;4.30;;
52934;SDS011;38802;50.198;19.796;2023-06-26T12:32:25;5.10;;;4.60;;
52934;SDS011;38802;50.198;19.796;2023-06-26T12:34:55;6.10;;;4.80;;
52934;SDS011;38802;50.198;19.796;2023-06-26T12:37:25;7.30;;;4.80;;
52934;SDS011;38802;50.198;19.796;2023-06-26T12:39:56;4.90;;;4.50;;
52934;SDS011;38802;50.198;19.796;2023-06-26T12:42:26;4.40;;;4.00;;
52934;SDS011;38802;50.198;19.796;2023-06-26T12:44:56;9.90;;;4.20;;
52934;SDS011;38802;50.198;19.796;2023-06-26T12:47:25;4.70;;;4.00;;
52934;SDS011;38802;50.198;19.796;2023-06-26T12:49:57;5.70;;;3.80;;
52934;SDS011;38802;50.198;19.796;2023-06-26T12:52:25;4.70;;;4.30;;
52934;SDS011;38802;50.198;19.796;2023-06-26T12:54:54;6.10;;;4.50;;
52934;SDS011;38802;50.198;19.796;2023-06-26T12:57:24;4.50;;;4.00;;
52934;SDS011;38802;50.198;19.796;2023-06-26T12:59:53;4.40;;;3.90;;
52934;SDS011;38802;50.198;19.796;2023-06-26T13:02:22;8.90;;;4.40;;
52934;SDS011;38802;50.198;19.796;2023-06-26T13:04:50;3.80;;;3.50;;
52934;SDS011;38802;50.198;19.796;2023-06-26T13:07:18;5.70;;;4.30;;
52934;SDS011;38802;50.198;19.796;2023-06-26T13:09:46;4.80;;;4.30;;
52934;SDS011;38802;50.198;19.796;2023-06-26T13:12:16;7.50;;;3.30;;
52934;SDS011;38802;50.198;19.796;2023-06-26T13:14:44;4.20;;;3.90;;
52934;SDS011;38802;50.198;19.796;2023-06-26T13:17:12;8.60;;;4.30;;
52934;SDS011;38802;50.198;19.796;2023-06-26T13:19:40;5.80;;;4.20;;
52934;SDS011;38802;50.198;19.796;2023-06-26T13:22:08;5.50;;;4.10;;
52934;SDS011;38802;50.198;19.796;2023-06-26T13:24:37;5.80;;;4.10;;
52934;SDS011;38802;50.198;19.796;2023-06-26T13:27:05;4.30;;;4.00;;
52934;SDS011;38802;50.198;19.796;2023-06-26T13:29:33;7.80;;;3.80;;
52934;SDS011;38802;50.198;19.796;2023-06-26T13:32:01;6.60;;;4.00;;
52934;SDS011;38802;50.198;19.796;2023-06-26T13:34:31;4.20;;;3.80;;
52934;SDS011;38802;50.198;19.796;2023-06-26T13:36:59;4.40;;;4.00;;
52934;SDS011;38802;50.198;19.796;2023-06-26T13:39:28;6.90;;;4.30;;
52934;SDS011;38802;50.198;19.796;2023-06-26T13:41:56;4.00;;;3.60;;
52934;SDS011;38802;50.198;19.796;2023-06-26T13:44:25;4.70;;;4.20;;
52934;SDS011;38802;50.198;19.796;2023-06-26T13:47:12;5.90;;;4.00;;
52934;SDS011;38802;50.198;19.796;2023-06-26T13:49:40;5.80;;;4.10;;
52934;SDS011;38802;50.198;19.796;2023-06-26T13:52:08;4.60;;;4.00;;
52934;SDS011;38802;50.198;19.796;2023-06-26T13:54:36;6.20;;;4.00;;
52934;SDS011;38802;50.198;19.796;2023-06-26T13:57:07;4.60;;;4.20;;
52934;SDS011;38802;50.198;19.796;2023-06-26T13:59:37;5.80;;;3.90;;
52934;SDS011;38802;50.198;19.796;2023-06-26T14:02:08;6.30;;;3.80;;
52934;SDS011;38802;50.198;19.796;2023-06-26T14:04:40;5.10;;;4.20;;
52934;SDS011;38802;50.198;19.796;2023-06-26T14:07:09;5.20;;;4.50;;
52934;SDS011;38802;50.198;19.796;2023-06-26T14:09:37;5.20;;;4.30;;
52934;SDS011;38802;50.198;19.796;2023-06-26T14:12:05;4.70;;;4.20;;
52934;SDS011;38802;50.198;19.796;2023-06-26T14:14:35;4.50;;;4.10;;
52934;SDS011;38802;50.198;19.796;2023-06-26T14:17:04;4.80;;;3.80;;
52934;SDS011;38802;50.198;19.796;2023-06-26T14:19:34;5.20;;;3.70;;
52934;SDS011;38802;50.198;19.796;2023-06-26T14:22:02;7.40;;;4.50;;
52934;SDS011;38802;50.198;19.796;2023-06-26T14:24:30;6.50;;;4.40;;
52934;SDS011;38802;50.198;19.796;2023-06-26T14:26:58;5.30;;;4.60;;
52934;SDS011;38802;50.198;19.796;2023-06-26T14:29:26;5.30;;;4.10;;
52934;SDS011;38802;50.198;19.796;2023-06-26T14:31:54;5.80;;;4.40;;
52934;SDS011;38802;50.198;19.796;2023-06-26T14:34:23;4.50;;;4.10;;
52934;SDS011;38802;50.198;19.796;2023-06-26T14:36:51;5.90;;;4.30;;
52934;SDS011;38802;50.198;19.796;2023-06-26T14:39:19;5.10;;;4.60;;
52934;SDS011;38802;50.198;19.796;2023-06-26T14:41:48;6.80;;;4.90;;
52934;SDS011;38802;50.198;19.796;2023-06-26T14:44:16;7.30;;;4.50;;
52934;SDS011;38802;50.198;19.796;2023-06-26T14:46:45;5.10;;;4.70;;
52934;SDS011;38802;50.198;19.796;2023-06-26T14:49:14;4.50;;;3.90;;
52934;SDS011;38802;50.198;19.796;2023-06-26T14:51:42;5.60;;;5.00;;
52934;SDS011;38802;50.198;19.796;2023-06-26T14:54:10;6.60;;;4.60;;
52934;SDS011;38802;50.198;19.796;2023-06-26T14:56:38;4.70;;;4.30;;
52934;SDS011;38802;50.198;19.796;2023-06-26T14:59:07;4.40;;;4.00;;
52934;SDS011;38802;50.198;19.796;2023-06-26T15:01:35;5.60;;;4.30;;
52934;SDS011;38802;50.198;19.796;2023-06-26T15:04:03;5.50;;;4.20;;
52934;SDS011;38802;50.198;19.796;2023-06-26T15:06:32;10.20;;;4.40;;
52934;SDS011;38802;50.198;19.796;2023-06-26T15:09:00;4.90;;;4.40;;
52934;SDS011;38802;50.198;19.796;2023-06-26T15:11:30;5.20;;;4.20;;
52934;SDS011;38802;50.198;19.796;2023-06-26T15:13:58;5.10;;;4.60;;